createdAt,value
2018-11-10T00:00:52.611Z,15.13
2018-11-10T00:03:20.715Z,14.75
2018-11-10T00:05:48.876Z,14.85
2018-11-10T00:08:17.141Z,15.53
2018-11-10T00:10:45.137Z,14.65
2018-11-10T00:13:13.335Z,15.25
2018-11-10T00:15:41.420Z,15.23
2018-11-10T00:18:09.516Z,13.60
2018-11-10T00:20:37.624Z,14.70
2018-11-10T00:23:05.806Z,17.48
2018-11-10T00:25:33.880Z,14.53
2018-11-10T00:28:02.010Z,15.88
2018-11-10T00:30:30.136Z,16.07
2018-11-10T00:32:58.271Z,16.80
2018-11-10T00:35:26.410Z,16.20
2018-11-10T00:37:54.512Z,15.55
2018-11-10T00:40:22.598Z,16.45
2018-11-10T00:42:50.767Z,15.28
2018-11-10T00:45:19.233Z,13.72
2018-11-10T00:47:47.372Z,13.30
2018-11-10T00:50:15.481Z,14.45
2018-11-10T00:52:43.629Z,15.70
2018-11-10T00:55:11.700Z,15.15
2018-11-10T00:57:39.798Z,15.25
2018-11-10T01:00:09.388Z,15.28
2018-11-10T01:02:37.511Z,17.02
2018-11-10T01:05:06.103Z,15.88
2018-11-10T01:07:34.201Z,13.35
2018-11-10T01:10:02.310Z,14.60
2018-11-10T01:12:30.378Z,14.90
2018-11-10T01:14:58.494Z,14.58
2018-11-10T01:17:26.573Z,14.38
2018-11-10T01:19:54.671Z,16.70
2018-11-10T01:22:22.801Z,14.33
2018-11-10T01:24:50.917Z,14.65
2018-11-10T01:27:19.009Z,14.70
2018-11-10T01:29:47.121Z,15.20
2018-11-10T01:32:15.212Z,15.05
2018-11-10T01:34:43.333Z,14.18
2018-11-10T01:37:11.414Z,15.05
2018-11-10T01:39:39.491Z,16.70
2018-11-10T01:42:07.579Z,15.85
2018-11-10T01:44:35.649Z,16.20
2018-11-10T01:47:03.727Z,15.85
2018-11-10T01:49:31.824Z,16.57
2018-11-10T01:52:00.075Z,16.05
2018-11-10T01:54:28.145Z,15.85
2018-11-10T01:56:56.215Z,17.40
2018-11-10T01:59:24.289Z,15.95
2018-11-10T02:01:52.380Z,16.30
2018-11-10T02:04:20.542Z,17.40
2018-11-10T02:06:48.678Z,17.17
2018-11-10T02:09:16.702Z,15.35
2018-11-10T02:11:44.799Z,14.80
2018-11-10T02:14:12.892Z,15.93
2018-11-10T02:16:41.025Z,17.02
2018-11-10T02:19:09.121Z,17.57
2018-11-10T02:21:37.212Z,14.90
2018-11-10T02:24:05.787Z,15.95
2018-11-10T02:26:33.937Z,15.00
2018-11-10T02:29:02.006Z,17.07
2018-11-10T02:31:30.077Z,16.25
2018-11-10T02:33:58.198Z,17.15
2018-11-10T02:36:26.260Z,17.75
2018-11-10T02:38:54.358Z,15.53
2018-11-10T02:41:22.378Z,13.18
2018-11-10T02:43:50.474Z,15.50
2018-11-10T02:46:18.541Z,15.95
2018-11-10T02:48:46.624Z,16.73
2018-11-10T02:51:14.744Z,16.17
2018-11-10T02:53:42.840Z,18.15
2018-11-10T02:56:11.089Z,16.40
2018-11-10T02:58:39.203Z,18.40
2018-11-10T03:01:07.267Z,15.10
2018-11-10T03:03:35.370Z,16.93
2018-11-10T03:06:03.432Z,16.90
2018-11-10T03:08:31.551Z,16.32
2018-11-10T03:10:59.627Z,16.30
2018-11-10T03:13:27.718Z,18.07
2018-11-10T03:15:55.799Z,16.10
2018-11-10T03:18:23.852Z,17.85
2018-11-10T03:20:51.930Z,15.88
2018-11-10T03:23:20.045Z,19.87
2018-11-10T03:25:48.160Z,17.87
2018-11-10T03:28:16.232Z,17.30
2018-11-10T03:30:44.371Z,16.30
2018-11-10T03:33:12.475Z,15.83
2018-11-10T03:35:40.569Z,16.35
2018-11-10T03:38:08.759Z,16.27
2018-11-10T03:40:36.857Z,16.50
2018-11-10T03:43:05.020Z,16.82
2018-11-10T03:45:33.090Z,17.20
2018-11-10T03:48:01.165Z,16.50
2018-11-10T03:50:29.249Z,14.53
2018-11-10T03:52:57.330Z,17.15
2018-11-10T03:55:25.405Z,15.00
2018-11-10T03:57:53.501Z,16.42
2018-11-10T04:00:21.614Z,16.15
2018-11-10T04:02:49.695Z,14.03
2018-11-10T04:05:17.774Z,15.00
2018-11-10T04:07:46.351Z,15.80
2018-11-10T04:10:15.291Z,17.73
2018-11-10T04:12:43.364Z,13.50
2018-11-10T04:15:11.502Z,14.05
2018-11-10T04:17:39.613Z,14.80
2018-11-10T04:20:08.874Z,15.00
2018-11-10T04:22:37.950Z,16.00
2018-11-10T04:25:08.608Z,16.75
2018-11-10T04:27:36.717Z,15.18
2018-11-10T04:30:06.379Z,14.85
2018-11-10T04:32:35.269Z,16.00
2018-11-10T04:35:03.399Z,15.80
2018-11-10T04:37:31.485Z,15.75
2018-11-10T04:39:59.689Z,14.38
2018-11-10T04:42:27.833Z,13.62
2018-11-10T04:44:55.930Z,14.18
2018-11-10T04:47:24.016Z,15.78
2018-11-10T04:49:52.109Z,15.23
2018-11-10T04:52:20.173Z,14.75
2018-11-10T04:54:48.276Z,14.73
2018-11-10T04:57:16.358Z,16.80
2018-11-10T04:59:44.436Z,16.35
2018-11-10T05:02:12.714Z,15.13
2018-11-10T05:04:40.874Z,14.10
2018-11-10T05:07:09.046Z,14.58
2018-11-10T05:09:37.190Z,14.65
2018-11-10T05:12:05.439Z,15.65
2018-11-10T05:14:33.592Z,15.85
2018-11-10T05:17:01.702Z,14.75
2018-11-10T05:19:29.781Z,15.95
2018-11-10T05:21:57.857Z,15.70
2018-11-10T05:24:26.657Z,15.15
2018-11-10T05:26:54.727Z,14.65
2018-11-10T05:29:22.835Z,15.95
2018-11-10T05:31:50.929Z,15.40
2018-11-10T05:34:19.077Z,16.70
2018-11-10T05:36:47.173Z,16.52
2018-11-10T05:39:15.307Z,15.95
2018-11-10T05:41:43.399Z,15.35
2018-11-10T05:44:11.491Z,17.92
2018-11-10T05:46:39.653Z,16.35
2018-11-10T05:49:07.738Z,17.70
2018-11-10T05:51:35.839Z,16.80
2018-11-10T05:54:03.946Z,16.07
2018-11-10T05:56:32.024Z,16.23
2018-11-10T05:59:00.110Z,18.02
2018-11-10T06:01:28.210Z,16.87
2018-11-10T06:03:56.306Z,16.50
2018-11-10T06:06:24.606Z,18.82
2018-11-10T06:08:52.736Z,18.57
2018-11-10T06:11:20.866Z,16.52
2018-11-10T06:13:48.965Z,17.27
2018-11-10T06:16:17.181Z,15.43
2018-11-10T06:18:45.200Z,16.40
2018-11-10T06:21:13.336Z,16.02
2018-11-10T06:23:41.475Z,14.78
2018-11-10T06:26:09.724Z,17.97
2018-11-10T06:28:37.764Z,16.45
2018-11-10T06:31:06.389Z,16.43
2018-11-10T06:33:34.478Z,15.32
2018-11-10T06:36:02.582Z,16.23
2018-11-10T06:38:30.698Z,16.32
2018-11-10T06:40:58.821Z,16.57
2018-11-10T06:43:26.957Z,16.00
2018-11-10T06:45:55.044Z,15.65
2018-11-10T06:48:23.113Z,16.57
2018-11-10T06:50:51.385Z,15.68
2018-11-10T06:53:19.460Z,16.07
2018-11-10T06:55:47.569Z,14.98
2018-11-10T06:58:15.714Z,14.00
2018-11-10T07:00:44.178Z,16.15
2018-11-10T07:03:12.481Z,14.53
2018-11-10T07:05:40.573Z,15.70
2018-11-10T07:08:08.683Z,14.13
2018-11-10T07:10:36.820Z,12.80
2018-11-10T07:13:05.315Z,16.57
2018-11-10T07:15:33.453Z,13.95
2018-11-10T07:18:01.639Z,12.37
2018-11-10T07:20:29.668Z,14.43
2018-11-10T07:22:57.762Z,15.93
2018-11-10T07:25:25.967Z,15.70
2018-11-10T07:27:54.047Z,15.83
2018-11-10T07:30:22.209Z,15.17
2018-11-10T07:32:50.327Z,14.57
2018-11-10T07:35:18.429Z,13.43
2018-11-10T07:37:46.801Z,15.33
2018-11-10T07:40:14.897Z,14.40
2018-11-10T07:42:43.033Z,14.30
2018-11-10T07:45:13.033Z,14.90
2018-11-10T07:47:41.688Z,13.30
2018-11-10T07:50:10.499Z,14.17
2018-11-10T07:52:39.241Z,15.00
2018-11-10T07:55:08.366Z,16.10
2018-11-10T07:57:36.462Z,15.00
2018-11-10T08:00:06.864Z,14.93
2018-11-10T08:02:34.933Z,16.73
2018-11-10T08:05:03.029Z,15.20
2018-11-10T08:07:31.159Z,15.80
2018-11-10T08:09:59.414Z,15.37
2018-11-10T08:12:27.506Z,15.77
2018-11-10T08:14:55.610Z,15.67
2018-11-10T08:17:23.700Z,15.83
2018-11-10T08:19:51.961Z,14.83
2018-11-10T08:22:20.154Z,16.83
2018-11-10T08:24:48.300Z,14.33
2018-11-10T08:27:16.416Z,16.07
2018-11-10T08:29:44.506Z,15.63
2018-11-10T08:32:12.625Z,15.77
2018-11-10T08:34:40.789Z,14.97
2018-11-10T08:37:08.909Z,14.80
2018-11-10T08:39:36.984Z,14.50
2018-11-10T08:42:05.194Z,13.90
2018-11-10T08:44:33.405Z,14.43
2018-11-10T08:47:01.613Z,13.03
2018-11-10T08:49:29.706Z,13.60
2018-11-10T08:51:57.939Z,12.40
2018-11-10T08:54:26.055Z,13.50
2018-11-10T08:56:54.272Z,13.80
2018-11-10T08:59:22.413Z,14.50
2018-11-10T09:01:50.560Z,13.57
2018-11-10T09:04:18.677Z,13.43
2018-11-10T09:06:46.770Z,12.57
2018-11-10T09:09:14.885Z,14.33
2018-11-10T09:11:42.957Z,14.03
2018-11-10T09:14:11.164Z,18.03
2018-11-10T09:16:39.311Z,14.07
2018-11-10T09:19:07.388Z,16.63
2018-11-10T09:21:35.592Z,13.43
2018-11-10T09:24:03.564Z,12.90
2018-11-10T09:26:31.673Z,12.77
2018-11-10T09:28:59.806Z,10.07
2018-11-10T09:31:27.889Z,11.90
2018-11-10T09:33:56.041Z,10.80
2018-11-10T09:36:24.356Z,11.73
2018-11-10T09:38:52.486Z,12.87
2018-11-10T09:41:20.613Z,10.83
2018-11-10T09:43:48.810Z,10.90
2018-11-10T09:46:17.302Z,11.83
2018-11-10T09:48:45.385Z,11.17
2018-11-10T09:51:13.539Z,10.20
2018-11-10T09:53:41.632Z,10.63
2018-11-10T09:56:09.935Z,11.57
2018-11-10T09:58:38.049Z,11.23
2018-11-10T10:01:06.338Z,9.50
2018-11-10T10:03:34.319Z,11.07
2018-11-10T10:06:02.470Z,9.33
2018-11-10T10:08:30.575Z,10.20
2018-11-10T10:10:58.744Z,7.60
2018-11-10T10:13:26.921Z,8.03
2018-11-10T10:15:55.038Z,7.90
2018-11-10T10:18:23.100Z,8.40
2018-11-10T10:20:51.182Z,8.37
2018-11-10T10:23:19.289Z,8.80
2018-11-10T10:25:47.434Z,9.00
2018-11-10T10:28:15.583Z,10.27
2018-11-10T10:30:43.634Z,8.60
2018-11-10T10:33:11.790Z,8.40
2018-11-10T10:35:40.033Z,7.90
2018-11-10T10:38:07.971Z,8.23
2018-11-10T10:40:36.093Z,7.73
2018-11-10T10:43:04.261Z,9.57
2018-11-10T10:45:32.304Z,8.33
2018-11-10T10:48:00.384Z,7.83
2018-11-10T10:50:28.505Z,8.80
2018-11-10T10:52:56.561Z,9.47
2018-11-10T10:55:24.677Z,7.93
2018-11-10T10:57:52.779Z,9.07
2018-11-10T11:00:26.240Z,9.10
2018-11-10T11:04:01.307Z,9.73
2018-11-10T11:06:29.369Z,8.37
2018-11-10T11:08:57.517Z,7.90
2018-11-10T11:11:25.587Z,10.03
2018-11-10T11:13:53.664Z,10.03
2018-11-10T11:16:21.850Z,8.87
2018-11-10T11:18:50.107Z,8.60
2018-11-10T11:21:18.194Z,8.50
2018-11-10T11:23:46.290Z,9.07
2018-11-10T11:26:14.435Z,8.10
2018-11-10T11:28:42.536Z,7.60
2018-11-10T11:31:10.615Z,7.17
2018-11-10T11:33:38.754Z,7.77
2018-11-10T11:36:06.795Z,7.17
2018-11-10T11:38:34.875Z,7.87
2018-11-10T11:41:02.959Z,8.17
2018-11-10T11:43:31.012Z,7.13
2018-11-10T11:45:59.107Z,8.73
2018-11-10T11:48:27.193Z,8.50
2018-11-10T11:50:55.291Z,7.50
2018-11-10T11:53:23.366Z,6.90
2018-11-10T11:55:51.449Z,8.33
2018-11-10T11:58:19.593Z,7.33
2018-11-10T12:00:47.605Z,7.67
2018-11-10T12:03:15.699Z,7.00
2018-11-10T12:05:43.781Z,7.07
2018-11-10T12:08:11.876Z,7.80
2018-11-10T12:10:40.033Z,7.77
2018-11-10T12:13:08.120Z,8.10
2018-11-10T12:15:36.240Z,7.63
2018-11-10T12:18:04.326Z,7.20
2018-11-10T12:20:32.438Z,7.90
2018-11-10T12:23:00.510Z,7.30
2018-11-10T12:25:28.569Z,6.97
2018-11-10T12:27:56.689Z,6.60
2018-11-10T12:30:24.761Z,8.20
2018-11-10T12:32:52.916Z,7.10
2018-11-10T12:35:21.021Z,6.57
2018-11-10T12:37:49.109Z,6.97
2018-11-10T12:40:17.249Z,7.63
2018-11-10T12:42:45.398Z,7.87
2018-11-10T12:45:14.260Z,7.00
2018-11-10T12:47:43.064Z,7.03
2018-11-10T12:50:12.386Z,6.70
2018-11-10T12:52:41.694Z,7.13
2018-11-10T12:55:11.306Z,6.50
2018-11-10T12:57:39.580Z,6.70
2018-11-10T13:00:09.335Z,7.50
2018-11-10T13:02:37.506Z,7.37
2018-11-10T13:05:06.573Z,7.13
2018-11-10T13:07:34.717Z,7.30
2018-11-10T13:10:02.835Z,6.80
2018-11-10T13:12:30.975Z,7.40
2018-11-10T13:14:59.056Z,6.50
2018-11-10T13:17:27.237Z,6.30
2018-11-10T13:19:55.318Z,5.10
2018-11-10T13:22:23.413Z,8.83
2018-11-10T13:24:51.575Z,9.87
2018-11-10T13:27:19.800Z,7.30
2018-11-10T13:29:47.937Z,7.17
2018-11-10T13:32:16.022Z,9.07
2018-11-10T13:34:44.115Z,7.90
2018-11-10T13:37:12.221Z,6.47
2018-11-10T13:39:40.336Z,7.10
2018-11-10T13:42:08.457Z,7.30
2018-11-10T13:44:36.601Z,9.87
2018-11-10T13:47:04.891Z,8.97
2018-11-10T13:49:32.974Z,7.90
2018-11-10T13:52:01.305Z,9.20
2018-11-10T13:54:29.201Z,9.43
2018-11-10T13:56:57.283Z,10.83
2018-11-10T13:59:25.422Z,8.87
2018-11-10T14:01:53.510Z,7.50
2018-11-10T14:04:21.669Z,7.47
2018-11-10T14:06:49.795Z,7.93
2018-11-10T14:09:17.914Z,6.90
2018-11-10T14:11:46.081Z,8.17
2018-11-10T14:14:14.293Z,9.53
2018-11-10T14:16:42.429Z,11.90
2018-11-10T14:19:10.621Z,13.00
2018-11-10T14:21:38.740Z,10.80
2018-11-10T14:24:06.970Z,8.93
2018-11-10T14:26:35.164Z,8.77
2018-11-10T14:29:03.302Z,9.40
2018-11-10T14:31:31.490Z,9.23
2018-11-10T14:33:59.599Z,8.23
2018-11-10T14:36:27.745Z,8.60
2018-11-10T14:38:55.960Z,8.30
2018-11-10T14:41:24.131Z,9.80
2018-11-10T14:43:52.308Z,9.20
2018-11-10T14:46:20.355Z,9.90
2018-11-10T14:48:48.464Z,9.63
2018-11-10T14:51:16.585Z,11.20
2018-11-10T14:53:44.688Z,10.80
2018-11-10T14:56:12.784Z,9.50
2018-11-10T14:58:40.968Z,10.33
2018-11-10T15:01:09.112Z,10.33
2018-11-10T15:03:37.250Z,11.30
2018-11-10T15:06:05.357Z,7.70
2018-11-10T15:08:33.493Z,9.67
2018-11-10T15:11:01.603Z,6.47
2018-11-10T15:13:29.747Z,15.37
2018-11-10T15:15:57.845Z,8.70
2018-11-10T15:18:26.038Z,8.10
2018-11-10T15:20:54.107Z,7.70
2018-11-10T15:23:22.280Z,7.57
2018-11-10T15:25:50.381Z,7.13
2018-11-10T15:28:18.484Z,9.10
2018-11-10T15:30:46.632Z,9.57
2018-11-10T15:33:14.761Z,8.00
2018-11-10T15:35:42.903Z,8.50
2018-11-10T15:38:11.068Z,12.87
2018-11-10T15:40:39.140Z,10.40
2018-11-10T15:43:07.330Z,12.40
2018-11-10T15:45:35.455Z,11.87
2018-11-10T15:48:03.571Z,10.37
2018-11-10T15:50:31.690Z,13.60
2018-11-10T15:52:59.748Z,11.43
2018-11-10T15:55:27.896Z,12.10
2018-11-10T15:57:56.034Z,11.17
2018-11-10T16:00:24.156Z,9.57
2018-11-10T16:02:52.463Z,10.30
2018-11-10T16:05:20.620Z,8.67
2018-11-10T16:07:48.775Z,8.57
2018-11-10T16:10:16.928Z,8.20
2018-11-10T16:12:45.047Z,8.47
2018-11-10T16:15:15.604Z,8.50
2018-11-10T16:17:43.719Z,8.60
2018-11-10T16:20:15.787Z,7.10
2018-11-10T16:22:45.549Z,10.30
2018-11-10T16:25:13.629Z,7.83
2018-11-10T16:27:41.703Z,10.27
2018-11-10T16:30:11.921Z,11.33
2018-11-10T16:32:40.385Z,11.63
2018-11-10T16:35:08.890Z,12.77
2018-11-10T16:37:36.994Z,11.97
2018-11-10T16:40:08.341Z,11.20
2018-11-10T16:42:36.571Z,13.43
2018-11-10T16:45:05.091Z,26.03
2018-11-10T16:47:33.189Z,25.23
2018-11-10T16:50:01.281Z,27.83
2018-11-10T16:52:29.414Z,25.77
2018-11-10T16:54:57.548Z,24.03
2018-11-10T16:57:25.744Z,25.23
2018-11-10T16:59:53.882Z,20.13
2018-11-10T17:02:22.037Z,17.87
2018-11-10T17:04:50.334Z,16.20
2018-11-10T17:07:18.418Z,16.47
2018-11-10T17:09:46.549Z,10.20
2018-11-10T17:12:15.005Z,9.40
2018-11-10T17:14:43.250Z,8.43
2018-11-10T17:17:11.484Z,10.83
2018-11-10T17:19:39.613Z,11.20
2018-11-10T17:22:08.182Z,8.30
2018-11-10T17:24:36.309Z,7.00
2018-11-10T17:27:04.476Z,7.87
2018-11-10T17:29:32.934Z,13.33
2018-11-10T17:32:01.118Z,9.23
2018-11-10T17:34:29.232Z,7.00
2018-11-10T17:36:57.367Z,7.47
2018-11-10T17:39:25.585Z,6.30
2018-11-10T17:41:53.599Z,6.83
2018-11-10T17:44:21.882Z,7.40
2018-11-10T17:46:50.010Z,8.13
2018-11-10T17:49:18.100Z,7.50
2018-11-10T17:51:47.076Z,7.70
2018-11-10T17:54:15.570Z,7.67
2018-11-10T17:56:43.679Z,8.37
2018-11-10T17:59:11.836Z,7.47
2018-11-10T18:01:39.997Z,8.10
2018-11-10T18:04:08.106Z,7.77
2018-11-10T18:06:36.248Z,9.87
2018-11-10T18:09:06.711Z,7.13
2018-11-10T18:11:34.828Z,8.47
2018-11-10T18:14:02.929Z,8.57
2018-11-10T18:16:31.098Z,8.30
2018-11-10T18:18:59.224Z,8.80
2018-11-10T18:21:27.321Z,7.23
2018-11-10T18:23:55.440Z,8.77
2018-11-10T18:26:23.589Z,8.40
2018-11-10T18:28:51.757Z,8.80
2018-11-10T18:31:19.897Z,9.23
2018-11-10T18:33:48.007Z,8.50
2018-11-10T18:36:16.098Z,8.83
2018-11-10T18:38:44.216Z,8.60
2018-11-10T18:41:12.319Z,8.77
2018-11-10T18:43:40.427Z,7.73
2018-11-10T18:46:08.585Z,8.87
2018-11-10T18:48:36.747Z,8.03
2018-11-10T18:51:04.844Z,7.43
2018-11-10T18:53:32.942Z,7.87
2018-11-10T18:56:01.048Z,8.97
2018-11-10T18:58:29.165Z,9.10
2018-11-10T19:00:57.257Z,8.93
2018-11-10T19:03:25.389Z,8.73
2018-11-10T19:05:53.476Z,9.20
2018-11-10T19:08:21.617Z,9.27
2018-11-10T19:10:49.693Z,9.23
2018-11-10T19:13:17.784Z,8.60
2018-11-10T19:15:45.863Z,7.70
2018-11-10T19:18:13.932Z,8.10
2018-11-10T19:20:42.029Z,8.10
2018-11-10T19:23:10.172Z,10.90
2018-11-10T19:25:38.290Z,8.83
2018-11-10T19:28:06.405Z,8.50
2018-11-10T19:30:34.559Z,8.57
2018-11-10T19:33:02.736Z,7.87
2018-11-10T19:35:30.837Z,7.73
2018-11-10T19:37:58.974Z,8.90
2018-11-10T19:40:27.093Z,8.60
2018-11-10T19:42:55.277Z,7.57
2018-11-10T19:45:23.440Z,7.47
2018-11-10T19:47:51.604Z,8.07
2018-11-10T19:50:19.880Z,8.80
2018-11-10T19:52:47.866Z,9.07
2018-11-10T19:55:17.094Z,8.30
2018-11-10T19:57:45.477Z,8.37
2018-11-10T20:00:18.222Z,8.93
2018-11-10T20:02:46.427Z,9.40
2018-11-10T20:05:14.516Z,7.63
2018-11-10T20:07:42.679Z,10.60
2018-11-10T20:10:11.637Z,7.90
2018-11-10T20:12:40.103Z,10.30
2018-11-10T20:15:09.966Z,9.60
2018-11-10T20:17:38.794Z,9.63
2018-11-10T20:20:08.130Z,10.07
2018-11-10T20:22:36.279Z,9.80
2018-11-10T20:25:04.793Z,8.70
2018-11-10T20:27:33.037Z,8.97
2018-11-10T20:30:01.113Z,8.70
2018-11-10T20:32:29.201Z,9.90
2018-11-10T20:34:57.365Z,9.97
2018-11-10T20:37:25.444Z,9.30
2018-11-10T20:39:53.554Z,8.67
2018-11-10T20:42:21.709Z,8.13
2018-11-10T20:44:50.059Z,8.90
2018-11-10T20:47:18.045Z,9.23
2018-11-10T20:49:46.125Z,9.30
2018-11-10T20:52:14.199Z,9.10
2018-11-10T20:54:42.307Z,8.83
2018-11-10T20:57:10.493Z,8.87
2018-11-10T20:59:38.592Z,9.80
2018-11-10T21:02:06.691Z,9.37
2018-11-10T21:04:34.885Z,10.00
2018-11-10T21:07:03.007Z,8.80
2018-11-10T21:09:31.116Z,8.87
2018-11-10T21:11:59.193Z,10.70
2018-11-10T21:14:27.341Z,8.50
2018-11-10T21:16:55.425Z,8.93
2018-11-10T21:19:23.571Z,9.53
2018-11-10T21:21:51.693Z,8.30
2018-11-10T21:24:19.813Z,7.80
2018-11-10T21:26:47.911Z,9.23
2018-11-10T21:29:15.997Z,8.90
2018-11-10T21:31:44.097Z,8.23
2018-11-10T21:34:12.300Z,9.37
2018-11-10T21:36:40.382Z,8.90
2018-11-10T21:39:10.115Z,9.70
2018-11-10T21:41:38.237Z,9.20
2018-11-10T21:44:06.694Z,8.90
2018-11-10T21:46:34.844Z,8.43
2018-11-10T21:49:03.094Z,8.10
2018-11-10T21:51:31.119Z,8.80
2018-11-10T21:53:59.261Z,7.77
2018-11-10T21:56:27.428Z,8.43
2018-11-10T21:58:55.589Z,9.60
2018-11-10T22:01:23.730Z,9.53
2018-11-10T22:03:51.934Z,8.30
2018-11-10T22:06:20.057Z,9.47
2018-11-10T22:08:48.186Z,9.50
2018-11-10T22:11:16.341Z,9.53
2018-11-10T22:13:44.579Z,8.47
2018-11-10T22:16:12.694Z,9.03
2018-11-10T22:18:40.963Z,9.00
2018-11-10T22:21:09.061Z,10.37
2018-11-10T22:23:37.309Z,9.97
2018-11-10T22:26:05.803Z,11.17
2018-11-10T22:28:33.924Z,10.63
2018-11-10T22:31:02.070Z,9.90
2018-11-10T22:33:30.152Z,10.57
2018-11-10T22:35:58.250Z,9.00
2018-11-10T22:38:26.464Z,9.57
2018-11-10T22:40:55.059Z,9.20
2018-11-10T22:43:23.217Z,10.20
2018-11-10T22:45:51.357Z,9.87
2018-11-10T22:48:23.668Z,11.20
2018-11-10T22:50:51.752Z,10.07
2018-11-10T22:53:19.867Z,9.47
2018-11-10T22:55:47.942Z,9.97
2018-11-10T22:58:16.193Z,9.97
2018-11-10T23:00:49.734Z,9.23
2018-11-10T23:03:17.907Z,10.37
2018-11-10T23:05:46.012Z,10.37
2018-11-10T23:08:14.281Z,9.77
2018-11-10T23:10:42.410Z,10.07
2018-11-10T23:13:10.546Z,10.30
2018-11-10T23:15:38.609Z,9.63
2018-11-10T23:18:06.850Z,9.40
2018-11-10T23:20:34.969Z,9.87
2018-11-10T23:23:03.192Z,9.20
2018-11-10T23:25:31.222Z,10.80
2018-11-10T23:27:59.328Z,8.83
2018-11-10T23:30:27.409Z,9.60
2018-11-10T23:32:55.533Z,10.70
2018-11-10T23:35:23.651Z,10.60
2018-11-10T23:37:51.792Z,9.30
2018-11-10T23:40:19.883Z,9.60
2018-11-10T23:42:47.970Z,10.03
2018-11-10T23:45:16.488Z,9.73
2018-11-10T23:47:44.715Z,9.90
2018-11-10T23:50:14.237Z,9.30
2018-11-10T23:52:42.342Z,10.10
2018-11-10T23:55:11.213Z,8.67
2018-11-10T23:57:39.545Z,8.60
